sensor_id;sensor_type;location;lat;lon;timestamp;P1;durP1;ratioP1;P2;durP2;ratioP2
29934;SDS011;19905;53.370;-6.314;2023-07-09T00:02:25;15.85;;;2.30;;
29934;SDS011;19905;53.370;-6.314;2023-07-09T00:05:02;15.10;;;2.30;;
29934;SDS011;19905;53.370;-6.314;2023-07-09T00:07:31;15.80;;;2.13;;
29934;SDS011;19905;53.370;-6.314;2023-07-09T00:10:00;16.42;;;2.40;;
29934;SDS011;19905;53.370;-6.314;2023-07-09T00:12:34;15.95;;;2.63;;
29934;SDS011;19905;53.370;-6.314;2023-07-09T00:15:02;10.60;;;2.13;;
29934;SDS011;19905;53.370;-6.314;2023-07-09T00:17:33;15.98;;;2.45;;
29934;SDS011;19905;53.370;-6.314;2023-07-09T00:20:02;8.75;;;1.95;;
29934;SDS011;19905;53.370;-6.314;2023-07-09T00:22:32;16.67;;;2.60;;
29934;SDS011;19905;53.370;-6.314;2023-07-09T00:25:01;13.10;;;2.20;;
29934;SDS011;19905;53.370;-6.314;2023-07-09T00:27:30;18.20;;;2.70;;
29934;SDS011;19905;53.370;-6.314;2023-07-09T00:29:59;15.80;;;2.28;;
29934;SDS011;19905;53.370;-6.314;2023-07-09T00:32:33;11.15;;;2.50;;
29934;SDS011;19905;53.370;-6.314;2023-07-09T00:35:10;13.32;;;2.30;;
29934;SDS011;19905;53.370;-6.314;2023-07-09T00:37:42;17.05;;;2.35;;
29934;SDS011;19905;53.370;-6.314;2023-07-09T00:40:15;11.20;;;2.17;;
29934;SDS011;19905;53.370;-6.314;2023-07-09T00:42:48;11.77;;;2.47;;
29934;SDS011;19905;53.370;-6.314;2023-07-09T00:45:19;18.98;;;2.25;;
29934;SDS011;19905;53.370;-6.314;2023-07-09T00:47:55;10.27;;;1.90;;
29934;SDS011;19905;53.370;-6.314;2023-07-09T00:50:31;9.75;;;2.20;;
29934;SDS011;19905;53.370;-6.314;2023-07-09T00:53:04;10.32;;;2.28;;
29934;SDS011;19905;53.370;-6.314;2023-07-09T00:55:44;13.02;;;2.40;;
29934;SDS011;19905;53.370;-6.314;2023-07-09T00:58:17;12.18;;;2.20;;
29934;SDS011;19905;53.370;-6.314;2023-07-09T01:00:49;11.20;;;2.53;;
29934;SDS011;19905;53.370;-6.314;2023-07-09T01:03:23;14.85;;;2.65;;
29934;SDS011;19905;53.370;-6.314;2023-07-09T01:05:56;14.48;;;2.10;;
29934;SDS011;19905;53.370;-6.314;2023-07-09T01:08:26;10.63;;;2.20;;
29934;SDS011;19905;53.370;-6.314;2023-07-09T01:10:57;11.30;;;2.47;;
29934;SDS011;19905;53.370;-6.314;2023-07-09T01:13:27;18.75;;;3.00;;
29934;SDS011;19905;53.370;-6.314;2023-07-09T01:15:59;13.80;;;3.00;;
29934;SDS011;19905;53.370;-6.314;2023-07-09T01:18:30;12.50;;;3.00;;
29934;SDS011;19905;53.370;-6.314;2023-07-09T01:21:01;12.43;;;3.53;;
29934;SDS011;19905;53.370;-6.314;2023-07-09T01:23:31;14.90;;;3.35;;
29934;SDS011;19905;53.370;-6.314;2023-07-09T01:26:00;13.85;;;3.53;;
29934;SDS011;19905;53.370;-6.314;2023-07-09T01:28:31;12.00;;;2.85;;
29934;SDS011;19905;53.370;-6.314;2023-07-09T01:30:59;14.20;;;3.35;;
29934;SDS011;19905;53.370;-6.314;2023-07-09T01:33:31;11.32;;;3.10;;
29934;SDS011;19905;53.370;-6.314;2023-07-09T01:36:01;12.80;;;2.97;;
29934;SDS011;19905;53.370;-6.314;2023-07-09T01:38:30;11.98;;;2.63;;
29934;SDS011;19905;53.370;-6.314;2023-07-09T01:40:59;12.55;;;2.88;;
29934;SDS011;19905;53.370;-6.314;2023-07-09T01:43:28;11.15;;;2.42;;
29934;SDS011;19905;53.370;-6.314;2023-07-09T01:45:57;13.27;;;3.17;;
29934;SDS011;19905;53.370;-6.314;2023-07-09T01:48:26;10.13;;;2.58;;
29934;SDS011;19905;53.370;-6.314;2023-07-09T01:50:55;12.10;;;2.90;;
29934;SDS011;19905;53.370;-6.314;2023-07-09T01:53:25;13.98;;;2.80;;
29934;SDS011;19905;53.370;-6.314;2023-07-09T01:55:57;11.32;;;2.60;;
29934;SDS011;19905;53.370;-6.314;2023-07-09T01:58:26;16.38;;;2.55;;
29934;SDS011;19905;53.370;-6.314;2023-07-09T02:00:57;14.68;;;2.45;;
29934;SDS011;19905;53.370;-6.314;2023-07-09T02:03:27;14.45;;;2.50;;
29934;SDS011;19905;53.370;-6.314;2023-07-09T02:05:55;15.70;;;2.70;;
29934;SDS011;19905;53.370;-6.314;2023-07-09T02:08:29;11.57;;;2.60;;
29934;SDS011;19905;53.370;-6.314;2023-07-09T02:10:58;10.00;;;2.50;;
29934;SDS011;19905;53.370;-6.314;2023-07-09T02:13:26;11.68;;;2.40;;
29934;SDS011;19905;53.370;-6.314;2023-07-09T02:15:55;14.18;;;2.60;;
29934;SDS011;19905;53.370;-6.314;2023-07-09T02:18:24;9.48;;;2.42;;
29934;SDS011;19905;53.370;-6.314;2023-07-09T02:20:53;19.45;;;3.63;;
29934;SDS011;19905;53.370;-6.314;2023-07-09T02:23:26;14.40;;;2.65;;
29934;SDS011;19905;53.370;-6.314;2023-07-09T02:25:57;12.52;;;2.75;;
29934;SDS011;19905;53.370;-6.314;2023-07-09T02:28:26;13.63;;;2.70;;
29934;SDS011;19905;53.370;-6.314;2023-07-09T02:30:55;14.48;;;2.88;;
29934;SDS011;19905;53.370;-6.314;2023-07-09T02:33:24;15.20;;;2.70;;
29934;SDS011;19905;53.370;-6.314;2023-07-09T02:35:53;15.93;;;2.80;;
29934;SDS011;19905;53.370;-6.314;2023-07-09T02:38:22;10.88;;;2.67;;
29934;SDS011;19905;53.370;-6.314;2023-07-09T02:40:51;14.80;;;2.90;;
29934;SDS011;19905;53.370;-6.314;2023-07-09T02:43:23;15.55;;;3.28;;
29934;SDS011;19905;53.370;-6.314;2023-07-09T02:45:52;13.82;;;2.55;;
29934;SDS011;19905;53.370;-6.314;2023-07-09T02:48:21;23.23;;;2.80;;
29934;SDS011;19905;53.370;-6.314;2023-07-09T02:50:49;20.60;;;3.10;;
29934;SDS011;19905;53.370;-6.314;2023-07-09T02:53:18;17.73;;;3.08;;
29934;SDS011;19905;53.370;-6.314;2023-07-09T02:55:47;14.77;;;2.78;;
29934;SDS011;19905;53.370;-6.314;2023-07-09T02:58:16;18.23;;;2.95;;
29934;SDS011;19905;53.370;-6.314;2023-07-09T03:00:48;20.27;;;2.70;;
29934;SDS011;19905;53.370;-6.314;2023-07-09T03:03:19;19.15;;;3.20;;
29934;SDS011;19905;53.370;-6.314;2023-07-09T03:05:48;19.02;;;3.17;;
29934;SDS011;19905;53.370;-6.314;2023-07-09T03:08:17;24.27;;;3.83;;
29934;SDS011;19905;53.370;-6.314;2023-07-09T03:10:46;21.33;;;3.17;;
29934;SDS011;19905;53.370;-6.314;2023-07-09T03:13:16;22.02;;;3.58;;
29934;SDS011;19905;53.370;-6.314;2023-07-09T03:15:54;19.65;;;3.13;;
29934;SDS011;19905;53.370;-6.314;2023-07-09T03:18:24;17.45;;;3.47;;
29934;SDS011;19905;53.370;-6.314;2023-07-09T03:20:53;20.27;;;3.03;;
29934;SDS011;19905;53.370;-6.314;2023-07-09T03:23:22;23.45;;;2.85;;
29934;SDS011;19905;53.370;-6.314;2023-07-09T03:25:54;18.42;;;3.25;;
29934;SDS011;19905;53.370;-6.314;2023-07-09T03:28:24;15.95;;;3.03;;
29934;SDS011;19905;53.370;-6.314;2023-07-09T03:30:55;18.20;;;2.80;;
29934;SDS011;19905;53.370;-6.314;2023-07-09T03:33:24;20.80;;;3.40;;
29934;SDS011;19905;53.370;-6.314;2023-07-09T03:35:53;21.27;;;3.25;;
29934;SDS011;19905;53.370;-6.314;2023-07-09T03:38:24;20.60;;;3.15;;
29934;SDS011;19905;53.370;-6.314;2023-07-09T03:40:53;26.83;;;3.05;;
29934;SDS011;19905;53.370;-6.314;2023-07-09T03:43:22;21.52;;;3.40;;
29934;SDS011;19905;53.370;-6.314;2023-07-09T03:45:53;17.75;;;3.08;;
29934;SDS011;19905;53.370;-6.314;2023-07-09T03:48:23;19.60;;;3.05;;
29934;SDS011;19905;53.370;-6.314;2023-07-09T03:50:52;25.92;;;3.50;;
29934;SDS011;19905;53.370;-6.314;2023-07-09T03:53:20;26.52;;;4.35;;
29934;SDS011;19905;53.370;-6.314;2023-07-09T03:55:51;20.17;;;3.60;;
29934;SDS011;19905;53.370;-6.314;2023-07-09T03:58:21;25.15;;;3.70;;
29934;SDS011;19905;53.370;-6.314;2023-07-09T04:00:51;30.17;;;4.15;;
29934;SDS011;19905;53.370;-6.314;2023-07-09T04:03:21;24.90;;;3.90;;
29934;SDS011;19905;53.370;-6.314;2023-07-09T04:05:52;21.10;;;4.00;;
29934;SDS011;19905;53.370;-6.314;2023-07-09T04:08:20;23.73;;;3.88;;
29934;SDS011;19905;53.370;-6.314;2023-07-09T04:10:48;21.45;;;3.50;;
29934;SDS011;19905;53.370;-6.314;2023-07-09T04:13:17;28.77;;;4.22;;
29934;SDS011;19905;53.370;-6.314;2023-07-09T04:15:45;18.30;;;3.80;;
29934;SDS011;19905;53.370;-6.314;2023-07-09T04:18:14;23.17;;;3.97;;
29934;SDS011;19905;53.370;-6.314;2023-07-09T04:20:45;23.08;;;3.97;;
29934;SDS011;19905;53.370;-6.314;2023-07-09T04:23:17;22.45;;;4.10;;
29934;SDS011;19905;53.370;-6.314;2023-07-09T04:25:46;23.02;;;3.95;;
29934;SDS011;19905;53.370;-6.314;2023-07-09T04:28:15;21.45;;;4.35;;
29934;SDS011;19905;53.370;-6.314;2023-07-09T04:30:47;19.17;;;3.78;;
29934;SDS011;19905;53.370;-6.314;2023-07-09T04:33:17;19.45;;;4.00;;
29934;SDS011;19905;53.370;-6.314;2023-07-09T04:35:48;27.67;;;4.80;;
29934;SDS011;19905;53.370;-6.314;2023-07-09T04:38:17;29.40;;;4.40;;
29934;SDS011;19905;53.370;-6.314;2023-07-09T04:40:46;17.27;;;3.80;;
29934;SDS011;19905;53.370;-6.314;2023-07-09T04:43:15;23.27;;;3.88;;
29934;SDS011;19905;53.370;-6.314;2023-07-09T04:45:43;20.50;;;3.60;;
29934;SDS011;19905;53.370;-6.314;2023-07-09T04:48:11;19.75;;;4.10;;
29934;SDS011;19905;53.370;-6.314;2023-07-09T04:50:40;22.13;;;3.90;;
29934;SDS011;19905;53.370;-6.314;2023-07-09T04:53:10;20.20;;;4.50;;
29934;SDS011;19905;53.370;-6.314;2023-07-09T04:55:39;23.20;;;4.20;;
29934;SDS011;19905;53.370;-6.314;2023-07-09T04:58:08;23.13;;;3.97;;
29934;SDS011;19905;53.370;-6.314;2023-07-09T05:00:37;19.27;;;4.05;;
29934;SDS011;19905;53.370;-6.314;2023-07-09T05:03:05;24.38;;;4.05;;
29934;SDS011;19905;53.370;-6.314;2023-07-09T05:05:34;25.38;;;4.43;;
29934;SDS011;19905;53.370;-6.314;2023-07-09T05:08:03;21.10;;;3.83;;
29934;SDS011;19905;53.370;-6.314;2023-07-09T05:10:33;22.42;;;4.15;;
29934;SDS011;19905;53.370;-6.314;2023-07-09T05:13:02;21.08;;;3.85;;
29934;SDS011;19905;53.370;-6.314;2023-07-09T05:15:30;27.58;;;4.70;;
29934;SDS011;19905;53.370;-6.314;2023-07-09T05:17:59;24.75;;;3.80;;
29934;SDS011;19905;53.370;-6.314;2023-07-09T05:20:28;22.10;;;4.20;;
29934;SDS011;19905;53.370;-6.314;2023-07-09T05:22:56;21.75;;;4.13;;
29934;SDS011;19905;53.370;-6.314;2023-07-09T05:25:25;26.05;;;4.53;;
29934;SDS011;19905;53.370;-6.314;2023-07-09T05:27:55;23.73;;;4.00;;
29934;SDS011;19905;53.370;-6.314;2023-07-09T05:30:25;23.75;;;3.75;;
29934;SDS011;19905;53.370;-6.314;2023-07-09T05:32:54;24.38;;;4.50;;
29934;SDS011;19905;53.370;-6.314;2023-07-09T05:35:25;24.08;;;4.13;;
29934;SDS011;19905;53.370;-6.314;2023-07-09T05:37:55;22.88;;;4.00;;
29934;SDS011;19905;53.370;-6.314;2023-07-09T05:40:24;24.30;;;3.97;;
29934;SDS011;19905;53.370;-6.314;2023-07-09T05:42:52;21.75;;;3.60;;
29934;SDS011;19905;53.370;-6.314;2023-07-09T05:45:22;19.30;;;3.60;;
29934;SDS011;19905;53.370;-6.314;2023-07-09T05:47:51;21.02;;;3.65;;
29934;SDS011;19905;53.370;-6.314;2023-07-09T05:50:20;29.65;;;4.22;;
29934;SDS011;19905;53.370;-6.314;2023-07-09T05:52:50;22.42;;;3.83;;
29934;SDS011;19905;53.370;-6.314;2023-07-09T05:55:18;16.00;;;3.05;;
29934;SDS011;19905;53.370;-6.314;2023-07-09T05:57:47;16.77;;;3.45;;
29934;SDS011;19905;53.370;-6.314;2023-07-09T06:00:15;21.55;;;3.40;;
29934;SDS011;19905;53.370;-6.314;2023-07-09T06:02:46;19.02;;;3.40;;
29934;SDS011;19905;53.370;-6.314;2023-07-09T06:05:15;18.80;;;3.25;;
29934;SDS011;19905;53.370;-6.314;2023-07-09T06:07:44;24.05;;;3.03;;
29934;SDS011;19905;53.370;-6.314;2023-07-09T06:10:13;23.83;;;3.45;;
29934;SDS011;19905;53.370;-6.314;2023-07-09T06:12:42;22.70;;;2.90;;
29934;SDS011;19905;53.370;-6.314;2023-07-09T06:15:10;21.45;;;3.00;;
29934;SDS011;19905;53.370;-6.314;2023-07-09T06:17:42;18.95;;;3.05;;
29934;SDS011;19905;53.370;-6.314;2023-07-09T06:20:14;19.40;;;3.22;;
29934;SDS011;19905;53.370;-6.314;2023-07-09T06:22:43;16.42;;;2.95;;
29934;SDS011;19905;53.370;-6.314;2023-07-09T06:25:12;15.20;;;2.92;;
29934;SDS011;19905;53.370;-6.314;2023-07-09T06:27:41;22.85;;;3.80;;
29934;SDS011;19905;53.370;-6.314;2023-07-09T06:30:11;17.40;;;2.85;;
29934;SDS011;19905;53.370;-6.314;2023-07-09T06:32:41;18.80;;;2.70;;
29934;SDS011;19905;53.370;-6.314;2023-07-09T06:35:13;19.88;;;3.00;;
29934;SDS011;19905;53.370;-6.314;2023-07-09T06:37:44;15.13;;;2.60;;
29934;SDS011;19905;53.370;-6.314;2023-07-09T06:40:12;14.52;;;2.25;;
29934;SDS011;19905;53.370;-6.314;2023-07-09T06:42:41;17.42;;;2.60;;
29934;SDS011;19905;53.370;-6.314;2023-07-09T06:45:11;20.67;;;2.63;;
29934;SDS011;19905;53.370;-6.314;2023-07-09T06:47:40;24.38;;;2.90;;
29934;SDS011;19905;53.370;-6.314;2023-07-09T06:50:10;18.40;;;2.72;;
29934;SDS011;19905;53.370;-6.314;2023-07-09T06:52:42;16.05;;;3.05;;
29934;SDS011;19905;53.370;-6.314;2023-07-09T06:55:19;15.93;;;2.75;;
29934;SDS011;19905;53.370;-6.314;2023-07-09T06:57:48;19.08;;;3.20;;
29934;SDS011;19905;53.370;-6.314;2023-07-09T07:00:17;16.67;;;2.88;;
29934;SDS011;19905;53.370;-6.314;2023-07-09T07:02:45;17.95;;;3.00;;
29934;SDS011;19905;53.370;-6.314;2023-07-09T07:05:15;17.33;;;3.30;;
29934;SDS011;19905;53.370;-6.314;2023-07-09T07:07:46;22.17;;;2.88;;
29934;SDS011;19905;53.370;-6.314;2023-07-09T07:10:16;17.58;;;3.03;;
29934;SDS011;19905;53.370;-6.314;2023-07-09T07:12:46;19.85;;;3.60;;
29934;SDS011;19905;53.370;-6.314;2023-07-09T07:15:16;22.80;;;3.80;;
29934;SDS011;19905;53.370;-6.314;2023-07-09T07:17:45;18.02;;;3.65;;
29934;SDS011;19905;53.370;-6.314;2023-07-09T07:20:15;21.73;;;3.45;;
29934;SDS011;19905;53.370;-6.314;2023-07-09T07:22:48;20.73;;;3.53;;
29934;SDS011;19905;53.370;-6.314;2023-07-09T07:25:17;23.17;;;3.65;;
29934;SDS011;19905;53.370;-6.314;2023-07-09T07:27:47;22.27;;;3.53;;
29934;SDS011;19905;53.370;-6.314;2023-07-09T07:30:17;23.95;;;3.33;;
29934;SDS011;19905;53.370;-6.314;2023-07-09T07:32:50;20.10;;;3.35;;
29934;SDS011;19905;53.370;-6.314;2023-07-09T07:35:18;22.35;;;3.63;;
29934;SDS011;19905;53.370;-6.314;2023-07-09T07:37:50;20.13;;;3.75;;
29934;SDS011;19905;53.370;-6.314;2023-07-09T07:40:19;30.42;;;4.35;;
29934;SDS011;19905;53.370;-6.314;2023-07-09T07:42:48;30.33;;;4.63;;
29934;SDS011;19905;53.370;-6.314;2023-07-09T07:45:20;31.45;;;4.95;;
29934;SDS011;19905;53.370;-6.314;2023-07-09T07:47:50;36.10;;;4.60;;
29934;SDS011;19905;53.370;-6.314;2023-07-09T07:50:19;28.65;;;4.93;;
29934;SDS011;19905;53.370;-6.314;2023-07-09T07:52:48;31.73;;;4.10;;
29934;SDS011;19905;53.370;-6.314;2023-07-09T07:55:18;35.40;;;4.85;;
29934;SDS011;19905;53.370;-6.314;2023-07-09T07:57:55;31.73;;;4.63;;
29934;SDS011;19905;53.370;-6.314;2023-07-09T08:00:24;25.42;;;3.80;;
29934;SDS011;19905;53.370;-6.314;2023-07-09T08:02:53;19.95;;;3.38;;
29934;SDS011;19905;53.370;-6.314;2023-07-09T08:05:22;24.17;;;3.40;;
29934;SDS011;19905;53.370;-6.314;2023-07-09T08:07:54;20.88;;;3.60;;
29934;SDS011;19905;53.370;-6.314;2023-07-09T08:10:22;25.50;;;3.83;;
29934;SDS011;19905;53.370;-6.314;2023-07-09T08:12:51;24.20;;;4.20;;
29934;SDS011;19905;53.370;-6.314;2023-07-09T08:15:25;27.45;;;4.78;;
29934;SDS011;19905;53.370;-6.314;2023-07-09T08:17:55;32.10;;;5.05;;
29934;SDS011;19905;53.370;-6.314;2023-07-09T08:20:24;33.40;;;5.00;;
29934;SDS011;19905;53.370;-6.314;2023-07-09T08:22:58;34.83;;;5.10;;
29934;SDS011;19905;53.370;-6.314;2023-07-09T08:25:27;30.42;;;4.60;;
29934;SDS011;19905;53.370;-6.314;2023-07-09T08:27:55;31.08;;;4.82;;
29934;SDS011;19905;53.370;-6.314;2023-07-09T08:30:24;32.33;;;3.90;;
29934;SDS011;19905;53.370;-6.314;2023-07-09T08:32:54;28.08;;;4.13;;
29934;SDS011;19905;53.370;-6.314;2023-07-09T08:35:24;28.52;;;4.15;;
29934;SDS011;19905;53.370;-6.314;2023-07-09T08:38:03;23.38;;;3.85;;
29934;SDS011;19905;53.370;-6.314;2023-07-09T08:40:32;26.75;;;4.22;;
29934;SDS011;19905;53.370;-6.314;2023-07-09T08:43:02;23.27;;;3.45;;
29934;SDS011;19905;53.370;-6.314;2023-07-09T08:45:42;21.23;;;3.58;;
29934;SDS011;19905;53.370;-6.314;2023-07-09T08:48:20;20.17;;;3.65;;
29934;SDS011;19905;53.370;-6.314;2023-07-09T08:51:02;20.60;;;3.38;;
29934;SDS011;19905;53.370;-6.314;2023-07-09T08:53:42;20.55;;;3.28;;
29934;SDS011;19905;53.370;-6.314;2023-07-09T08:56:15;17.00;;;3.45;;
29934;SDS011;19905;53.370;-6.314;2023-07-09T08:58:45;15.98;;;3.05;;
29934;SDS011;19905;53.370;-6.314;2023-07-09T09:01:22;14.95;;;3.28;;
29934;SDS011;19905;53.370;-6.314;2023-07-09T09:03:57;15.60;;;2.60;;
29934;SDS011;19905;53.370;-6.314;2023-07-09T09:06:31;11.40;;;2.40;;
29934;SDS011;19905;53.370;-6.314;2023-07-09T09:09:05;13.85;;;2.53;;
29934;SDS011;19905;53.370;-6.314;2023-07-09T09:11:44;11.82;;;2.30;;
29934;SDS011;19905;53.370;-6.314;2023-07-09T09:14:24;8.95;;;1.90;;
29934;SDS011;19905;53.370;-6.314;2023-07-09T09:16:59;8.10;;;1.88;;
29934;SDS011;19905;53.370;-6.314;2023-07-09T09:19:31;8.60;;;1.55;;
29934;SDS011;19905;53.370;-6.314;2023-07-09T09:22:06;8.48;;;1.90;;
29934;SDS011;19905;53.370;-6.314;2023-07-09T09:24:40;8.75;;;1.90;;
29934;SDS011;19905;53.370;-6.314;2023-07-09T09:27:21;7.32;;;1.77;;
29934;SDS011;19905;53.370;-6.314;2023-07-09T09:29:49;11.10;;;1.83;;
29934;SDS011;19905;53.370;-6.314;2023-07-09T09:32:21;9.40;;;1.75;;
29934;SDS011;19905;53.370;-6.314;2023-07-09T09:34:53;7.57;;;1.77;;
29934;SDS011;19905;53.370;-6.314;2023-07-09T09:37:24;9.90;;;2.00;;
29934;SDS011;19905;53.370;-6.314;2023-07-09T09:39:58;11.02;;;2.00;;
29934;SDS011;19905;53.370;-6.314;2023-07-09T09:42:43;9.48;;;2.03;;
29934;SDS011;19905;53.370;-6.314;2023-07-09T09:45:12;8.05;;;1.85;;
29934;SDS011;19905;53.370;-6.314;2023-07-09T09:47:43;9.63;;;2.20;;
29934;SDS011;19905;53.370;-6.314;2023-07-09T09:50:13;13.73;;;2.10;;
29934;SDS011;19905;53.370;-6.314;2023-07-09T09:52:43;13.55;;;2.00;;
29934;SDS011;19905;53.370;-6.314;2023-07-09T09:55:16;13.65;;;2.50;;
29934;SDS011;19905;53.370;-6.314;2023-07-09T09:57:47;12.05;;;2.25;;
29934;SDS011;19905;53.370;-6.314;2023-07-09T10:00:17;13.60;;;2.25;;
29934;SDS011;19905;53.370;-6.314;2023-07-09T10:02:47;13.70;;;2.30;;
29934;SDS011;19905;53.370;-6.314;2023-07-09T10:05:18;11.75;;;2.33;;
29934;SDS011;19905;53.370;-6.314;2023-07-09T10:07:55;20.48;;;2.92;;
29934;SDS011;19905;53.370;-6.314;2023-07-09T10:10:30;11.30;;;2.13;;
29934;SDS011;19905;53.370;-6.314;2023-07-09T10:13:04;15.18;;;2.38;;
29934;SDS011;19905;53.370;-6.314;2023-07-09T10:15:40;15.10;;;2.45;;
29934;SDS011;19905;53.370;-6.314;2023-07-09T10:18:16;17.13;;;2.60;;
29934;SDS011;19905;53.370;-6.314;2023-07-09T10:21:00;14.50;;;2.15;;
29934;SDS011;19905;53.370;-6.314;2023-07-09T10:23:36;11.50;;;2.20;;
29934;SDS011;19905;53.370;-6.314;2023-07-09T10:26:19;15.65;;;2.58;;
29934;SDS011;19905;53.370;-6.314;2023-07-09T10:29:00;15.35;;;2.47;;
29934;SDS011;19905;53.370;-6.314;2023-07-09T10:31:54;14.38;;;2.53;;
29934;SDS011;19905;53.370;-6.314;2023-07-09T10:34:31;10.45;;;1.90;;
29934;SDS011;19905;53.370;-6.314;2023-07-09T10:37:11;10.65;;;2.85;;
29934;SDS011;19905;53.370;-6.314;2023-07-09T10:39:57;12.35;;;2.35;;
29934;SDS011;19905;53.370;-6.314;2023-07-09T10:42:29;13.55;;;2.45;;
29934;SDS011;19905;53.370;-6.314;2023-07-09T10:45:02;13.00;;;1.90;;
29934;SDS011;19905;53.370;-6.314;2023-07-09T10:47:38;10.45;;;2.20;;
29934;SDS011;19905;53.370;-6.314;2023-07-09T10:50:14;13.55;;;2.10;;
29934;SDS011;19905;53.370;-6.314;2023-07-09T10:52:48;10.63;;;2.03;;
29934;SDS011;19905;53.370;-6.314;2023-07-09T10:55:25;9.60;;;1.85;;
29934;SDS011;19905;53.370;-6.314;2023-07-09T10:58:00;11.10;;;2.08;;
29934;SDS011;19905;53.370;-6.314;2023-07-09T11:00:34;9.85;;;1.75;;
29934;SDS011;19905;53.370;-6.314;2023-07-09T11:03:05;6.90;;;1.48;;
29934;SDS011;19905;53.370;-6.314;2023-07-09T11:05:43;9.23;;;1.90;;
29934;SDS011;19905;53.370;-6.314;2023-07-09T11:08:13;9.27;;;2.17;;
29934;SDS011;19905;53.370;-6.314;2023-07-09T11:10:47;10.65;;;1.98;;
29934;SDS011;19905;53.370;-6.314;2023-07-09T11:13:23;11.10;;;2.00;;
29934;SDS011;19905;53.370;-6.314;2023-07-09T11:16:08;9.50;;;1.80;;
29934;SDS011;19905;53.370;-6.314;2023-07-09T11:18:51;9.00;;;1.90;;
29934;SDS011;19905;53.370;-6.314;2023-07-09T11:21:23;9.13;;;1.90;;
29934;SDS011;19905;53.370;-6.314;2023-07-09T11:23:53;8.15;;;1.70;;
29934;SDS011;19905;53.370;-6.314;2023-07-09T11:26:24;10.23;;;1.90;;
29934;SDS011;19905;53.370;-6.314;2023-07-09T11:28:56;8.57;;;1.60;;
29934;SDS011;19905;53.370;-6.314;2023-07-09T11:31:42;7.28;;;1.02;;
29934;SDS011;19905;53.370;-6.314;2023-07-09T11:34:15;8.32;;;1.10;;
29934;SDS011;19905;53.370;-6.314;2023-07-09T11:36:47;6.50;;;1.40;;
29934;SDS011;19905;53.370;-6.314;2023-07-09T11:39:20;7.72;;;1.30;;
29934;SDS011;19905;53.370;-6.314;2023-07-09T11:41:49;6.18;;;1.20;;
29934;SDS011;19905;53.370;-6.314;2023-07-09T11:44:20;6.05;;;1.40;;
29934;SDS011;19905;53.370;-6.314;2023-07-09T11:46:57;6.63;;;1.20;;
29934;SDS011;19905;53.370;-6.314;2023-07-09T11:49:39;10.45;;;1.38;;
29934;SDS011;19905;53.370;-6.314;2023-07-09T11:52:14;6.80;;;1.25;;
29934;SDS011;19905;53.370;-6.314;2023-07-09T11:54:46;7.38;;;1.50;;
29934;SDS011;19905;53.370;-6.314;2023-07-09T11:57:19;5.05;;;1.20;;
29934;SDS011;19905;53.370;-6.314;2023-07-09T11:59:50;6.43;;;1.20;;
29934;SDS011;19905;53.370;-6.314;2023-07-09T12:02:21;6.00;;;1.27;;
29934;SDS011;19905;53.370;-6.314;2023-07-09T12:07:34;7.25;;;1.33;;
29934;SDS011;19905;53.370;-6.314;2023-07-09T12:10:08;5.45;;;1.30;;
29934;SDS011;19905;53.370;-6.314;2023-07-09T12:12:48;6.30;;;1.20;;
29934;SDS011;19905;53.370;-6.314;2023-07-09T12:15:27;6.28;;;1.10;;
29934;SDS011;19905;53.370;-6.314;2023-07-09T12:17:59;6.80;;;1.20;;
29934;SDS011;19905;53.370;-6.314;2023-07-09T12:20:34;4.93;;;1.15;;
29934;SDS011;19905;53.370;-6.314;2023-07-09T12:25:39;4.63;;;1.20;;
29934;SDS011;19905;53.370;-6.314;2023-07-09T12:28:16;8.65;;;1.48;;
29934;SDS011;19905;53.370;-6.314;2023-07-09T12:30:50;8.60;;;1.45;;
29934;SDS011;19905;53.370;-6.314;2023-07-09T12:33:21;7.78;;;1.48;;
29934;SDS011;19905;53.370;-6.314;2023-07-09T12:35:53;6.82;;;1.48;;
29934;SDS011;19905;53.370;-6.314;2023-07-09T12:38:26;5.75;;;1.80;;
29934;SDS011;19905;53.370;-6.314;2023-07-09T12:40:59;6.53;;;1.17;;
29934;SDS011;19905;53.370;-6.314;2023-07-09T12:43:30;4.88;;;1.13;;
29934;SDS011;19905;53.370;-6.314;2023-07-09T12:46:01;5.10;;;1.10;;
29934;SDS011;19905;53.370;-6.314;2023-07-09T12:48:30;3.70;;;0.93;;
29934;SDS011;19905;53.370;-6.314;2023-07-09T12:51:00;3.72;;;0.80;;
29934;SDS011;19905;53.370;-6.314;2023-07-09T12:53:30;2.55;;;0.80;;
29934;SDS011;19905;53.370;-6.314;2023-07-09T12:56:01;2.88;;;0.70;;
29934;SDS011;19905;53.370;-6.314;2023-07-09T12:58:30;2.72;;;0.85;;
29934;SDS011;19905;53.370;-6.314;2023-07-09T13:01:05;3.15;;;0.82;;
29934;SDS011;19905;53.370;-6.314;2023-07-09T13:03:37;4.57;;;0.80;;
29934;SDS011;19905;53.370;-6.314;2023-07-09T13:06:06;6.68;;;0.90;;
29934;SDS011;19905;53.370;-6.314;2023-07-09T13:08:56;3.40;;;0.70;;
29934;SDS011;19905;53.370;-6.314;2023-07-09T13:11:31;4.82;;;1.10;;
29934;SDS011;19905;53.370;-6.314;2023-07-09T13:14:05;3.85;;;0.70;;
29934;SDS011;19905;53.370;-6.314;2023-07-09T13:16:45;2.85;;;0.90;;
29934;SDS011;19905;53.370;-6.314;2023-07-09T13:19:14;4.25;;;1.00;;
29934;SDS011;19905;53.370;-6.314;2023-07-09T13:21:42;4.88;;;0.80;;
29934;SDS011;19905;53.370;-6.314;2023-07-09T13:24:16;2.42;;;0.70;;
29934;SDS011;19905;53.370;-6.314;2023-07-09T13:26:49;2.13;;;0.73;;
29934;SDS011;19905;53.370;-6.314;2023-07-09T13:29:18;3.00;;;0.57;;
29934;SDS011;19905;53.370;-6.314;2023-07-09T13:31:50;3.22;;;0.80;;
29934;SDS011;19905;53.370;-6.314;2023-07-09T13:34:21;3.95;;;0.80;;
29934;SDS011;19905;53.370;-6.314;2023-07-09T13:36:52;3.42;;;0.75;;
29934;SDS011;19905;53.370;-6.314;2023-07-09T13:39:23;2.35;;;0.60;;
29934;SDS011;19905;53.370;-6.314;2023-07-09T13:41:54;2.92;;;0.80;;
29934;SDS011;19905;53.370;-6.314;2023-07-09T13:44:24;2.75;;;0.70;;
29934;SDS011;19905;53.370;-6.314;2023-07-09T13:46:55;3.75;;;0.70;;
29934;SDS011;19905;53.370;-6.314;2023-07-09T13:49:25;3.88;;;0.80;;
29934;SDS011;19905;53.370;-6.314;2023-07-09T13:51:56;3.92;;;0.60;;
29934;SDS011;19905;53.370;-6.314;2023-07-09T13:54:28;4.40;;;0.65;;
29934;SDS011;19905;53.370;-6.314;2023-07-09T13:57:03;3.13;;;0.70;;
29934;SDS011;19905;53.370;-6.314;2023-07-09T13:59:33;4.10;;;0.65;;
29934;SDS011;19905;53.370;-6.314;2023-07-09T14:02:13;5.45;;;1.00;;
29934;SDS011;19905;53.370;-6.314;2023-07-09T14:04:48;4.65;;;0.90;;
29934;SDS011;19905;53.370;-6.314;2023-07-09T14:07:21;3.40;;;0.80;;
29934;SDS011;19905;53.370;-6.314;2023-07-09T14:09:53;3.22;;;0.70;;
29934;SDS011;19905;53.370;-6.314;2023-07-09T14:12:22;4.38;;;0.90;;
29934;SDS011;19905;53.370;-6.314;2023-07-09T14:14:52;3.97;;;0.90;;
29934;SDS011;19905;53.370;-6.314;2023-07-09T14:17:23;4.35;;;0.73;;
29934;SDS011;19905;53.370;-6.314;2023-07-09T14:19:53;5.35;;;1.08;;
29934;SDS011;19905;53.370;-6.314;2023-07-09T14:22:25;3.97;;;0.75;;
29934;SDS011;19905;53.370;-6.314;2023-07-09T14:24:58;3.45;;;0.68;;
29934;SDS011;19905;53.370;-6.314;2023-07-09T14:27:27;3.00;;;0.80;;
29934;SDS011;19905;53.370;-6.314;2023-07-09T14:29:56;5.22;;;0.95;;
29934;SDS011;19905;53.370;-6.314;2023-07-09T14:32:34;3.10;;;0.80;;
29934;SDS011;19905;53.370;-6.314;2023-07-09T14:35:09;6.47;;;0.80;;
29934;SDS011;19905;53.370;-6.314;2023-07-09T14:37:40;3.72;;;0.75;;
29934;SDS011;19905;53.370;-6.314;2023-07-09T14:40:11;2.72;;;0.90;;
29934;SDS011;19905;53.370;-6.314;2023-07-09T14:42:41;6.13;;;0.80;;
29934;SDS011;19905;53.370;-6.314;2023-07-09T14:45:17;2.28;;;0.82;;
29934;SDS011;19905;53.370;-6.314;2023-07-09T14:47:50;3.35;;;0.70;;
29934;SDS011;19905;53.370;-6.314;2023-07-09T14:50:21;4.15;;;1.05;;
29934;SDS011;19905;53.370;-6.314;2023-07-09T14:52:51;3.95;;;0.90;;
29934;SDS011;19905;53.370;-6.314;2023-07-09T14:55:22;4.95;;;0.90;;
29934;SDS011;19905;53.370;-6.314;2023-07-09T14:57:51;4.45;;;0.80;;